sensor_id;sensor_type;location;lat;lon;timestamp;pressure;altitude;pressure_sealevel;temperature;humidity
58239;BME280;44037;55.638;37.356;2023-01-28T00:01:44;99794.63;;;-1.73;100.00
58239;BME280;44037;55.638;37.356;2023-01-28T00:04:12;99794.94;;;-1.81;100.00
58239;BME280;44037;55.638;37.356;2023-01-28T00:06:39;99794.00;;;-1.83;100.00
58239;BME280;44037;55.638;37.356;2023-01-28T00:09:06;99797.13;;;-1.88;100.00
58239;BME280;44037;55.638;37.356;2023-01-28T00:11:33;99797.63;;;-1.93;100.00
58239;BME280;44037;55.638;37.356;2023-01-28T00:14:01;99792.34;;;-1.96;100.00
58239;BME280;44037;55.638;37.356;2023-01-28T00:16:29;99788.16;;;-1.96;100.00
58239;BME280;44037;55.638;37.356;2023-01-28T00:18:56;99787.97;;;-1.99;100.00
58239;BME280;44037;55.638;37.356;2023-01-28T00:21:23;99796.38;;;-2.00;100.00
58239;BME280;44037;55.638;37.356;2023-01-28T00:23:52;99794.63;;;-2.01;100.00
58239;BME280;44037;55.638;37.356;2023-01-28T00:26:20;99804.06;;;-1.98;100.00
58239;BME280;44037;55.638;37.356;2023-01-28T00:28:48;99814.03;;;-2.02;100.00
58239;BME280;44037;55.638;37.356;2023-01-28T00:31:17;99798.44;;;-2.08;100.00
58239;BME280;44037;55.638;37.356;2023-01-28T00:33:46;99798.66;;;-2.18;100.00
58239;BME280;44037;55.638;37.356;2023-01-28T00:36:15;99795.53;;;-2.27;100.00
58239;BME280;44037;55.638;37.356;2023-01-28T00:38:42;99802.34;;;-2.26;100.00
58239;BME280;44037;55.638;37.356;2023-01-28T00:41:11;99793.16;;;-2.24;100.00
58239;BME280;44037;55.638;37.356;2023-01-28T00:43:39;99804.22;;;-2.24;100.00
58239;BME280;44037;55.638;37.356;2023-01-28T00:46:08;99805.00;;;-2.25;100.00
58239;BME280;44037;55.638;37.356;2023-01-28T00:48:37;99802.47;;;-2.25;100.00
58239;BME280;44037;55.638;37.356;2023-01-28T00:51:07;99808.31;;;-2.26;100.00
58239;BME280;44037;55.638;37.356;2023-01-28T00:53:34;99802.34;;;-2.26;100.00
58239;BME280;44037;55.638;37.356;2023-01-28T00:56:03;99804.22;;;-2.24;100.00
58239;BME280;44037;55.638;37.356;2023-01-28T00:58:31;99809.19;;;-2.25;100.00
58239;BME280;44037;55.638;37.356;2023-01-28T01:01:06;99805.88;;;-2.24;100.00
58239;BME280;44037;55.638;37.356;2023-01-28T01:03:33;99808.41;;;-2.24;100.00
58239;BME280;44037;55.638;37.356;2023-01-28T01:06:02;99817.69;;;-2.25;100.00
58239;BME280;44037;55.638;37.356;2023-01-28T01:08:29;99813.19;;;-2.29;100.00
58239;BME280;44037;55.638;37.356;2023-01-28T01:11:01;99799.53;;;-2.31;100.00
58239;BME280;44037;55.638;37.356;2023-01-28T01:13:28;99807.13;;;-2.31;100.00
58239;BME280;44037;55.638;37.356;2023-01-28T01:16:04;99808.81;;;-2.32;100.00
58239;BME280;44037;55.638;37.356;2023-01-28T01:18:31;99805.50;;;-2.30;100.00
58239;BME280;44037;55.638;37.356;2023-01-28T01:20:58;99806.84;;;-2.36;100.00
58239;BME280;44037;55.638;37.356;2023-01-28T01:23:28;99806.66;;;-2.39;100.00
58239;BME280;44037;55.638;37.356;2023-01-28T01:25:55;99806.47;;;-2.42;100.00
58239;BME280;44037;55.638;37.356;2023-01-28T01:28:23;99808.03;;;-2.44;100.00
58239;BME280;44037;55.638;37.356;2023-01-28T01:30:58;99807.25;;;-2.43;100.00
58239;BME280;44037;55.638;37.356;2023-01-28T01:33:27;99807.13;;;-2.44;100.00
58239;BME280;44037;55.638;37.356;2023-01-28T01:35:55;99799.53;;;-2.44;100.00
58239;BME280;44037;55.638;37.356;2023-01-28T01:38:22;99798.09;;;-2.41;100.00
58239;BME280;44037;55.638;37.356;2023-01-28T01:40:50;99802.06;;;-2.44;100.00
58239;BME280;44037;55.638;37.356;2023-01-28T01:43:19;99796.63;;;-2.51;100.00
58239;BME280;44037;55.638;37.356;2023-01-28T01:45:48;99793.09;;;-2.53;100.00
58239;BME280;44037;55.638;37.356;2023-01-28T01:48:20;99793.66;;;-2.57;100.00
58239;BME280;44037;55.638;37.356;2023-01-28T01:50:51;99795.13;;;-2.60;100.00
58239;BME280;44037;55.638;37.356;2023-01-28T01:53:21;99787.44;;;-2.62;100.00
58239;BME280;44037;55.638;37.356;2023-01-28T01:55:55;99794.94;;;-2.64;100.00
58239;BME280;44037;55.638;37.356;2023-01-28T01:58:26;99798.28;;;-2.65;100.00
58239;BME280;44037;55.638;37.356;2023-01-28T02:00:54;99791.53;;;-2.64;100.00
58239;BME280;44037;55.638;37.356;2023-01-28T02:03:25;99800.69;;;-2.66;100.00
58239;BME280;44037;55.638;37.356;2023-01-28T02:05:54;99803.94;;;-2.69;100.00
58239;BME280;44037;55.638;37.356;2023-01-28T02:08:21;99802.94;;;-2.71;100.00
58239;BME280;44037;55.638;37.356;2023-01-28T02:10:55;99805.47;;;-2.71;100.00
58239;BME280;44037;55.638;37.356;2023-01-28T02:13:27;99803.94;;;-2.69;100.00
58239;BME280;44037;55.638;37.356;2023-01-28T02:15:57;99809.22;;;-2.66;100.00
58239;BME280;44037;55.638;37.356;2023-01-28T02:18:26;99808.44;;;-2.65;100.00
58239;BME280;44037;55.638;37.356;2023-01-28T02:21:09;99815.84;;;-2.68;100.00
58239;BME280;44037;55.638;37.356;2023-01-28T02:23:53;99814.84;;;-2.70;100.00
58239;BME280;44037;55.638;37.356;2023-01-28T02:26:46;99817.19;;;-2.73;100.00
58239;BME280;44037;55.638;37.356;2023-01-28T02:29:22;99806.25;;;-2.72;100.00
58239;BME280;44037;55.638;37.356;2023-01-28T02:31:54;99807.94;;;-2.72;100.00
58239;BME280;44037;55.638;37.356;2023-01-28T02:34:32;99800.13;;;-2.75;100.00
58239;BME280;44037;55.638;37.356;2023-01-28T02:37:05;99811.34;;;-2.72;100.00
58239;BME280;44037;55.638;37.356;2023-01-28T02:39:37;99814.44;;;-2.76;100.00
58239;BME280;44037;55.638;37.356;2023-01-28T02:42:09;99821.97;;;-2.78;100.00
58239;BME280;44037;55.638;37.356;2023-01-28T02:44:39;99824.97;;;-2.83;100.00
58239;BME280;44037;55.638;37.356;2023-01-28T02:47:09;99819.47;;;-2.89;100.00
58239;BME280;44037;55.638;37.356;2023-01-28T02:49:56;99821.06;;;-2.91;100.00
58239;BME280;44037;55.638;37.356;2023-01-28T02:52:29;99823.41;;;-2.95;100.00
58239;BME280;44037;55.638;37.356;2023-01-28T02:55:22;99827.69;;;-2.94;100.00
58239;BME280;44037;55.638;37.356;2023-01-28T02:58:02;99832.84;;;-2.92;100.00
58239;BME280;44037;55.638;37.356;2023-01-28T03:00:41;99833.75;;;-2.91;100.00
58239;BME280;44037;55.638;37.356;2023-01-28T03:03:39;99832.63;;;-2.95;100.00
58239;BME280;44037;55.638;37.356;2023-01-28T03:06:09;99833.63;;;-2.93;100.00
58239;BME280;44037;55.638;37.356;2023-01-28T03:08:41;99843.47;;;-2.98;100.00
58239;BME280;44037;55.638;37.356;2023-01-28T03:11:28;99852.44;;;-3.03;100.00
58239;BME280;44037;55.638;37.356;2023-01-28T03:14:14;99849.69;;;-3.06;100.00
58239;BME280;44037;55.638;37.356;2023-01-28T03:17:01;99841.31;;;-3.05;100.00
58239;BME280;44037;55.638;37.356;2023-01-28T03:19:47;99837.09;;;-3.04;100.00
58239;BME280;44037;55.638;37.356;2023-01-28T03:22:33;99838.66;;;-3.06;100.00
58239;BME280;44037;55.638;37.356;2023-01-28T03:25:21;99846.94;;;-3.09;100.00
58239;BME280;44037;55.638;37.356;2023-01-28T03:28:12;99851.16;;;-3.10;100.00
58239;BME280;44037;55.638;37.356;2023-01-28T03:31:03;99857.31;;;-3.06;100.00
58239;BME280;44037;55.638;37.356;2023-01-28T03:33:51;99852.00;;;-3.09;100.00
58239;BME280;44037;55.638;37.356;2023-01-28T03:36:37;99856.22;;;-3.10;100.00
58239;BME280;44037;55.638;37.356;2023-01-28T03:39:16;99857.56;;;-3.15;100.00
58239;BME280;44037;55.638;37.356;2023-01-28T03:41:55;99857.25;;;-3.19;100.00
58239;BME280;44037;55.638;37.356;2023-01-28T03:44:23;99857.34;;;-3.18;100.00
58239;BME280;44037;55.638;37.356;2023-01-28T03:47:09;99850.81;;;-3.14;100.00
58239;BME280;44037;55.638;37.356;2023-01-28T03:49:39;99850.03;;;-3.13;100.00
58239;BME280;44037;55.638;37.356;2023-01-28T03:52:06;99846.84;;;-3.11;100.00
58239;BME280;44037;55.638;37.356;2023-01-28T03:54:33;99853.00;;;-3.07;100.00
58239;BME280;44037;55.638;37.356;2023-01-28T03:57:00;99844.63;;;-3.06;100.00
58239;BME280;44037;55.638;37.356;2023-01-28T03:59:27;99845.28;;;-3.09;100.00
58239;BME280;44037;55.638;37.356;2023-01-28T04:01:55;99845.28;;;-3.09;100.00
58239;BME280;44037;55.638;37.356;2023-01-28T04:04:22;99845.28;;;-3.09;100.00
58239;BME280;44037;55.638;37.356;2023-01-28T04:06:52;99846.19;;;-3.08;100.00
58239;BME280;44037;55.638;37.356;2023-01-28T04:09:19;99845.28;;;-3.09;100.00
58239;BME280;44037;55.638;37.356;2023-01-28T04:11:46;99837.78;;;-3.07;100.00
58239;BME280;44037;55.638;37.356;2023-01-28T04:14:14;99847.94;;;-3.07;100.00
58239;BME280;44037;55.638;37.356;2023-01-28T04:16:41;99851.94;;;-3.11;100.00
58239;BME280;44037;55.638;37.356;2023-01-28T04:19:08;99848.19;;;-3.16;100.00
58239;BME280;44037;55.638;37.356;2023-01-28T04:21:36;99858.13;;;-3.19;100.00
58239;BME280;44037;55.638;37.356;2023-01-28T04:24:06;99848.56;;;-3.23;100.00
58239;BME280;44037;55.638;37.356;2023-01-28T04:26:33;99853.50;;;-3.25;100.00
58239;BME280;44037;55.638;37.356;2023-01-28T04:29:00;99850.97;;;-3.25;100.00
58239;BME280;44037;55.638;37.356;2023-01-28T04:31:27;99849.22;;;-3.26;100.00
58239;BME280;44037;55.638;37.356;2023-01-28T04:33:54;99854.19;;;-3.27;100.00
58239;BME280;44037;55.638;37.356;2023-01-28T04:36:21;99846.69;;;-3.26;100.00
58239;BME280;44037;55.638;37.356;2023-01-28T04:38:48;99847.13;;;-3.19;100.00
58239;BME280;44037;55.638;37.356;2023-01-28T04:41:20;99853.94;;;-3.18;100.00
58239;BME280;44037;55.638;37.356;2023-01-28T04:43:47;99849.53;;;-3.21;100.00
58239;BME280;44037;55.638;37.356;2023-01-28T04:46:15;99854.59;;;-3.21;100.00
58239;BME280;44037;55.638;37.356;2023-01-28T04:48:42;99853.81;;;-3.20;100.00
58239;BME280;44037;55.638;37.356;2023-01-28T04:51:09;99853.72;;;-3.21;100.00
58239;BME280;44037;55.638;37.356;2023-01-28T04:53:37;99855.28;;;-3.24;100.00
58239;BME280;44037;55.638;37.356;2023-01-28T04:56:04;99849.91;;;-3.28;100.00
58239;BME280;44037;55.638;37.356;2023-01-28T04:58:32;99855.06;;;-3.27;100.00
58239;BME280;44037;55.638;37.356;2023-01-28T05:01:00;99856.25;;;-3.21;100.00
58239;BME280;44037;55.638;37.356;2023-01-28T05:03:27;99856.47;;;-3.18;100.00
58239;BME280;44037;55.638;37.356;2023-01-28T05:05:54;99855.88;;;-3.14;100.00
58239;BME280;44037;55.638;37.356;2023-01-28T05:08:21;99862.84;;;-3.12;100.00
58239;BME280;44037;55.638;37.356;2023-01-28T05:10:48;99860.97;;;-3.14;100.00
58239;BME280;44037;55.638;37.356;2023-01-28T05:13:15;99873.31;;;-3.19;100.00
58239;BME280;44037;55.638;37.356;2023-01-28T05:15:49;99875.69;;;-3.22;100.00
58239;BME280;44037;55.638;37.356;2023-01-28T05:18:17;99879.75;;;-3.24;100.00
58239;BME280;44037;55.638;37.356;2023-01-28T05:20:44;99880.41;;;-3.27;100.00
58239;BME280;44037;55.638;37.356;2023-01-28T05:23:11;99885.28;;;-3.30;100.00
58239;BME280;44037;55.638;37.356;2023-01-28T05:25:38;99883.41;;;-3.32;100.00
58239;BME280;44037;55.638;37.356;2023-01-28T05:28:05;99882.44;;;-3.34;100.00
58239;BME280;44037;55.638;37.356;2023-01-28T05:30:32;99883.09;;;-3.37;100.00
58239;BME280;44037;55.638;37.356;2023-01-28T05:33:00;99883.00;;;-3.38;100.00
58239;BME280;44037;55.638;37.356;2023-01-28T05:35:27;99893.00;;;-3.40;100.00
58239;BME280;44037;55.638;37.356;2023-01-28T05:37:54;99881.69;;;-3.45;100.00
58239;BME280;44037;55.638;37.356;2023-01-28T05:40:21;99882.25;;;-3.49;100.00
58239;BME280;44037;55.638;37.356;2023-01-28T05:42:48;99882.94;;;-3.52;100.00
58239;BME280;44037;55.638;37.356;2023-01-28T05:45:15;99878.53;;;-3.55;100.00
58239;BME280;44037;55.638;37.356;2023-01-28T05:47:42;99888.66;;;-3.55;100.00
58239;BME280;44037;55.638;37.356;2023-01-28T05:50:12;99890.97;;;-3.58;100.00
58239;BME280;44037;55.638;37.356;2023-01-28T05:52:39;99886.91;;;-3.56;100.00
58239;BME280;44037;55.638;37.356;2023-01-28T05:55:07;99880.94;;;-3.56;100.00
58239;BME280;44037;55.638;37.356;2023-01-28T05:57:35;99886.69;;;-3.59;100.00
58239;BME280;44037;55.638;37.356;2023-01-28T06:00:03;99889.31;;;-3.57;100.00
58239;BME280;44037;55.638;37.356;2023-01-28T06:02:31;99885.16;;;-3.57;100.00
58239;BME280;44037;55.638;37.356;2023-01-28T06:04:58;99884.38;;;-3.56;100.00
58239;BME280;44037;55.638;37.356;2023-01-28T06:07:26;99891.84;;;-3.57;100.00
58239;BME280;44037;55.638;37.356;2023-01-28T06:09:56;99892.53;;;-3.60;100.00
58239;BME280;44037;55.638;37.356;2023-01-28T06:12:23;99889.78;;;-3.63;100.00
58239;BME280;44037;55.638;37.356;2023-01-28T06:14:51;99900.81;;;-3.62;100.00
58239;BME280;44037;55.638;37.356;2023-01-28T06:17:18;99897.28;;;-3.64;100.00
58239;BME280;44037;55.638;37.356;2023-01-28T06:19:45;99897.28;;;-3.64;100.00
58239;BME280;44037;55.638;37.356;2023-01-28T06:22:13;99898.91;;;-3.65;100.00
58239;BME280;44037;55.638;37.356;2023-01-28T06:24:42;99908.19;;;-3.65;100.00
58239;BME280;44037;55.638;37.356;2023-01-28T06:27:10;99896.19;;;-3.68;100.00
58239;BME280;44037;55.638;37.356;2023-01-28T06:29:38;99902.34;;;-3.64;100.00
58239;BME280;44037;55.638;37.356;2023-01-28T06:32:06;99909.50;;;-3.59;100.00
58239;BME280;44037;55.638;37.356;2023-01-28T06:34:33;99899.56;;;-3.56;100.00
58239;BME280;44037;55.638;37.356;2023-01-28T06:37:06;99893.75;;;-3.55;100.00
58239;BME280;44037;55.638;37.356;2023-01-28T06:39:35;99901.34;;;-3.55;100.00
58239;BME280;44037;55.638;37.356;2023-01-28T06:42:08;99906.09;;;-3.59;100.00
58239;BME280;44037;55.638;37.356;2023-01-28T06:44:37;99906.50;;;-3.65;100.00
58239;BME280;44037;55.638;37.356;2023-01-28T06:47:05;99899.59;;;-3.67;100.00
58239;BME280;44037;55.638;37.356;2023-01-28T06:49:32;99901.91;;;-3.71;100.00
58239;BME280;44037;55.638;37.356;2023-01-28T06:52:00;99911.94;;;-3.72;100.00
58239;BME280;44037;55.638;37.356;2023-01-28T06:54:34;99905.56;;;-3.79;100.00
58239;BME280;44037;55.638;37.356;2023-01-28T06:57:06;99910.72;;;-3.77;100.00
58239;BME280;44037;55.638;37.356;2023-01-28T06:59:37;99904.09;;;-3.75;100.00
58239;BME280;44037;55.638;37.356;2023-01-28T07:02:17;99909.94;;;-3.64;100.00
58239;BME280;44037;55.638;37.356;2023-01-28T07:04:44;99917.09;;;-3.59;100.00
58239;BME280;44037;55.638;37.356;2023-01-28T07:07:12;99923.91;;;-3.58;100.00
58239;BME280;44037;55.638;37.356;2023-01-28T07:09:41;99917.94;;;-3.58;100.00
58239;BME280;44037;55.638;37.356;2023-01-28T07:12:10;99923.91;;;-3.58;100.00
58239;BME280;44037;55.638;37.356;2023-01-28T07:14:37;99917.09;;;-3.59;100.00
58239;BME280;44037;55.638;37.356;2023-01-28T07:17:04;99926.13;;;-3.62;100.00
58239;BME280;44037;55.638;37.356;2023-01-28T07:19:31;99922.50;;;-3.66;100.00
58239;BME280;44037;55.638;37.356;2023-01-28T07:21:59;99916.22;;;-3.71;100.00
58239;BME280;44037;55.638;37.356;2023-01-28T07:24:28;99924.81;;;-3.69;100.00
58239;BME280;44037;55.638;37.356;2023-01-28T07:26:58;99926.69;;;-3.66;100.00
58239;BME280;44037;55.638;37.356;2023-01-28T07:29:28;99925.22;;;-3.63;100.00
58239;BME280;44037;55.638;37.356;2023-01-28T07:31:55;99925.69;;;-3.57;100.00
58239;BME280;44037;55.638;37.356;2023-01-28T07:34:22;99924.31;;;-3.51;100.00
58239;BME280;44037;55.638;37.356;2023-01-28T07:36:50;99926.31;;;-3.47;100.00
58239;BME280;44037;55.638;37.356;2023-01-28T07:39:19;99914.63;;;-3.45;100.00
58239;BME280;44037;55.638;37.356;2023-01-28T07:41:47;99917.72;;;-3.49;100.00
58239;BME280;44037;55.638;37.356;2023-01-28T07:44:14;99919.47;;;-3.48;100.00
58239;BME280;44037;55.638;37.356;2023-01-28T07:46:43;99912.56;;;-3.51;100.00
58239;BME280;44037;55.638;37.356;2023-01-28T07:49:32;99912.44;;;-3.52;100.00
58239;BME280;44037;55.638;37.356;2023-01-28T07:52:01;99916.72;;;-3.51;100.00
58239;BME280;44037;55.638;37.356;2023-01-28T07:54:31;99911.13;;;-3.47;100.00
58239;BME280;44037;55.638;37.356;2023-01-28T07:57:06;99906.66;;;-3.38;100.00
58239;BME280;44037;55.638;37.356;2023-01-28T07:59:36;99919.00;;;-3.31;100.00
58239;BME280;44037;55.638;37.356;2023-01-28T08:02:09;99913.56;;;-3.24;100.00
58239;BME280;44037;55.638;37.356;2023-01-28T08:04:41;99911.47;;;-3.17;100.00
58239;BME280;44037;55.638;37.356;2023-01-28T08:07:09;99922.78;;;-3.12;100.00
58239;BME280;44037;55.638;37.356;2023-01-28T08:09:36;99922.31;;;-3.06;100.00
58239;BME280;44037;55.638;37.356;2023-01-28T08:12:04;99919.13;;;-3.04;100.00
58239;BME280;44037;55.638;37.356;2023-01-28T08:14:34;99913.38;;;-3.01;100.00
58239;BME280;44037;55.638;37.356;2023-01-28T08:17:04;99910.47;;;-2.94;100.00
58239;BME280;44037;55.638;37.356;2023-01-28T08:19:32;99911.97;;;-2.84;100.00
58239;BME280;44037;55.638;37.356;2023-01-28T08:22:00;99902.13;;;-2.80;100.00
58239;BME280;44037;55.638;37.356;2023-01-28T08:24:28;99909.06;;;-2.77;100.00
58239;BME280;44037;55.638;37.356;2023-01-28T08:26:55;99908.28;;;-2.76;100.00
58239;BME280;44037;55.638;37.356;2023-01-28T08:29:22;99908.28;;;-2.76;100.00
58239;BME280;44037;55.638;37.356;2023-01-28T08:31:49;99909.06;;;-2.77;100.00
58239;BME280;44037;55.638;37.356;2023-01-28T08:34:19;99907.34;;;-2.78;100.00
58239;BME280;44037;55.638;37.356;2023-01-28T08:36:50;99910.72;;;-2.78;100.00
58239;BME280;44037;55.638;37.356;2023-01-28T08:39:17;99911.50;;;-2.79;100.00
58239;BME280;44037;55.638;37.356;2023-01-28T08:41:45;99906.91;;;-2.84;100.00
58239;BME280;44037;55.638;37.356;2023-01-28T08:44:15;99907.38;;;-2.90;100.00
58239;BME280;44037;55.638;37.356;2023-01-28T08:46:43;99903.16;;;-2.89;100.00
58239;BME280;44037;55.638;37.356;2023-01-28T08:49:10;99897.06;;;-2.80;100.00
58239;BME280;44037;55.638;37.356;2023-01-28T08:51:40;99895.13;;;-2.70;100.00
58239;BME280;44037;55.638;37.356;2023-01-28T08:54:09;99896.25;;;-2.67;100.00
58239;BME280;44037;55.638;37.356;2023-01-28T08:56:36;99894.22;;;-2.59;100.00
58239;BME280;44037;55.638;37.356;2023-01-28T08:59:07;99893.13;;;-2.49;100.00
58239;BME280;44037;55.638;37.356;2023-01-28T09:01:35;99898.13;;;-2.37;100.00
58239;BME280;44037;55.638;37.356;2023-01-28T09:04:02;99891.03;;;-2.29;100.00
58239;BME280;44037;55.638;37.356;2023-01-28T09:06:30;99895.50;;;-2.25;100.00
58239;BME280;44037;55.638;37.356;2023-01-28T09:08:58;99890.53;;;-2.24;100.00
58239;BME280;44037;55.638;37.356;2023-01-28T09:11:26;99886.63;;;-2.19;100.00
58239;BME280;44037;55.638;37.356;2023-01-28T09:13:56;99885.19;;;-2.15;100.00
58239;BME280;44037;55.638;37.356;2023-01-28T09:16:23;99886.03;;;-2.14;100.00
58239;BME280;44037;55.638;37.356;2023-01-28T09:18:51;99885.25;;;-2.13;100.00
58239;BME280;44037;55.638;37.356;2023-01-28T09:21:19;99877.56;;;-2.15;100.00
58239;BME280;44037;55.638;37.356;2023-01-28T09:23:46;99883.50;;;-2.14;100.00
58239;BME280;44037;55.638;37.356;2023-01-28T09:26:13;99880.28;;;-2.12;100.00
58239;BME280;44037;55.638;37.356;2023-01-28T09:28:42;99881.38;;;-2.08;100.00
58239;BME280;44037;55.638;37.356;2023-01-28T09:31:10;99877.84;;;-2.10;100.00
58239;BME280;44037;55.638;37.356;2023-01-28T09:33:39;99883.50;;;-2.14;100.00
58239;BME280;44037;55.638;37.356;2023-01-28T09:36:09;99876.75;;;-2.14;100.00
58239;BME280;44037;55.638;37.356;2023-01-28T09:38:37;99878.50;;;-2.13;100.00
58239;BME280;44037;55.638;37.356;2023-01-28T09:41:22;99876.66;;;-2.16;100.00
58239;BME280;44037;55.638;37.356;2023-01-28T09:44:02;99876.66;;;-2.16;100.00
58239;BME280;44037;55.638;37.356;2023-01-28T09:46:33;99880.88;;;-2.16;100.00
58239;BME280;44037;55.638;37.356;2023-01-28T09:49:04;99880.09;;;-2.15;100.00
58239;BME280;44037;55.638;37.356;2023-01-28T09:51:40;99871.28;;;-2.20;100.00
58239;BME280;44037;55.638;37.356;2023-01-28T09:54:18;99872.97;;;-2.21;100.00
58239;BME280;44037;55.638;37.356;2023-01-28T09:56:52;99871.22;;;-2.22;100.00
58239;BME280;44037;55.638;37.356;2023-01-28T09:59:26;99867.97;;;-2.19;100.00
58239;BME280;44037;55.638;37.356;2023-01-28T10:01:59;99871.38;;;-2.19;100.00
58239;BME280;44037;55.638;37.356;2023-01-28T10:04:48;99867.97;;;-2.19;100.00
58239;BME280;44037;55.638;37.356;2023-01-28T10:07:30;99863.28;;;-2.13;100.00
58239;BME280;44037;55.638;37.356;2023-01-28T10:10:12;99867.97;;;-2.06;100.00
58239;BME280;44037;55.638;37.356;2023-01-28T10:12:53;99863.38;;;-1.98;100.00
58239;BME280;44037;55.638;37.356;2023-01-28T10:18:45;99855.47;;;-1.89;100.00
58239;BME280;44037;55.638;37.356;2023-01-28T10:21:19;99855.63;;;-1.86;100.00
58239;BME280;44037;55.638;37.356;2023-01-28T10:23:56;99846.72;;;-1.79;100.00
58239;BME280;44037;55.638;37.356;2023-01-28T10:26:30;99848.88;;;-1.72;100.00
58239;BME280;44037;55.638;37.356;2023-01-28T10:29:03;99854.84;;;-1.72;100.00
58239;BME280;44037;55.638;37.356;2023-01-28T10:31:34;99849.47;;;-1.76;100.00
58239;BME280;44037;55.638;37.356;2023-01-28T10:34:05;99838.53;;;-1.75;100.00
58239;BME280;44037;55.638;37.356;2023-01-28T10:36:33;99842.13;;;-1.72;100.00
58239;BME280;44037;55.638;37.356;2023-01-28T10:39:03;99835.41;;;-1.71;99.94
58239;BME280;44037;55.638;37.356;2023-01-28T10:41:31;99841.16;;;-1.74;99.64
58239;BME280;44037;55.638;37.356;2023-01-28T10:43:58;99840.00;;;-1.79;99.23
58239;BME280;44037;55.638;37.356;2023-01-28T10:46:28;99836.00;;;-1.89;98.82
58239;BME280;44037;55.638;37.356;2023-01-28T10:49:01;99833.88;;;-1.96;98.43
58239;BME280;44037;55.638;37.356;2023-01-28T10:51:35;99832.78;;;-1.99;98.42
58239;BME280;44037;55.638;37.356;2023-01-28T10:54:18;99824.19;;;-2.02;98.88
58239;BME280;44037;55.638;37.356;2023-01-28T10:56:46;99825.19;;;-1.99;98.58
58239;BME280;44037;55.638;37.356;2023-01-28T10:59:20;99827.72;;;-1.99;98.80
58239;BME280;44037;55.638;37.356;2023-01-28T11:01:50;99826.28;;;-1.96;98.75
58239;BME280;44037;55.638;37.356;2023-01-28T11:04:22;99822.25;;;-1.92;98.43
58239;BME280;44037;55.638;37.356;2023-01-28T11:06:56;99815.59;;;-1.90;98.44
58239;BME280;44037;55.638;37.356;2023-01-28T11:09:25;99818.44;;;-1.86;98.16
58239;BME280;44037;55.638;37.356;2023-01-28T11:11:52;99815.09;;;-1.84;98.11
58239;BME280;44037;55.638;37.356;2023-01-28T11:14:22;99810.31;;;-1.80;98.29
58239;BME280;44037;55.638;37.356;2023-01-28T11:16:51;99813.19;;;-1.74;98.09
58239;BME280;44037;55.638;37.356;2023-01-28T11:19:20;99808.50;;;-1.67;99.18
58239;BME280;44037;55.638;37.356;2023-01-28T11:21:48;99811.59;;;-1.58;98.84
58239;BME280;44037;55.638;37.356;2023-01-28T11:24:21;99803.38;;;-1.54;98.18
58239;BME280;44037;55.638;37.356;2023-01-28T11:26:51;99802.69;;;-1.51;98.21
58239;BME280;44037;55.638;37.356;2023-01-28T11:29:26;99803.72;;;-1.48;98.22
58239;BME280;44037;55.638;37.356;2023-01-28T11:31:54;99803.94;;;-1.45;98.38
58239;BME280;44037;55.638;37.356;2023-01-28T11:34:26;99808.56;;;-1.37;98.74
58239;BME280;44037;55.638;37.356;2023-01-28T11:36:59;99800.34;;;-1.33;98.54
58239;BME280;44037;55.638;37.356;2023-01-28T11:39:30;99799.56;;;-1.32;98.17
58239;BME280;44037;55.638;37.356;2023-01-28T11:42:10;99793.97;;;-1.27;98.18
58239;BME280;44037;55.638;37.356;2023-01-28T11:44:39;99789.34;;;-1.19;98.26
58239;BME280;44037;55.638;37.356;2023-01-28T11:47:18;99792.22;;;-1.13;98.30
58239;BME280;44037;55.638;37.356;2023-01-28T11:50:17;99784.34;;;-1.17;97.58
58239;BME280;44037;55.638;37.356;2023-01-28T11:52:54;99781.63;;;-1.20;97.99
58239;BME280;44037;55.638;37.356;2023-01-28T11:55:38;99781.63;;;-1.20;98.05
58239;BME280;44037;55.638;37.356;2023-01-28T11:58:17;99785.31;;;-1.15;98.46
58239;BME280;44037;55.638;37.356;2023-01-28T12:00:51;99772.69;;;-1.14;97.79
58239;BME280;44037;55.638;37.356;2023-01-28T12:06:21;99753.84;;;-1.02;97.50
58239;BME280;44037;55.638;37.356;2023-01-28T12:08:58;99747.16;;;-1.00;97.21
58239;BME280;44037;55.638;37.356;2023-01-28T12:11:41;99747.97;;;-1.01;96.89
58239;BME280;44037;55.638;37.356;2023-01-28T12:14:36;99752.94;;;-1.03;96.64
58239;BME280;44037;55.638;37.356;2023-01-28T12:17:18;99747.88;;;-1.03;96.51
58239;BME280;44037;55.638;37.356;2023-01-28T12:20:02;99756.09;;;-1.07;95.64
58239;BME280;44037;55.638;37.356;2023-01-28T12:22:52;99749.88;;;-1.12;95.82
58239;BME280;44037;55.638;37.356;2023-01-28T12:25:40;99753.03;;;-1.16;95.95
58239;BME280;44037;55.638;37.356;2023-01-28T12:28:23;99748.38;;;-1.24;95.76
58239;BME280;44037;55.638;37.356;2023-01-28T12:31:06;99756.63;;;-1.28;95.41
58239;BME280;44037;55.638;37.356;2023-01-28T12:34:00;99754.59;;;-1.33;95.40
58239;BME280;44037;55.638;37.356;2023-01-28T12:36:54;99743.13;;;-1.42;95.17
58239;BME280;44037;55.638;37.356;2023-01-28T12:39:40;99741.25;;;-1.44;95.29
58239;BME280;44037;55.638;37.356;2023-01-28T12:42:18;99736.78;;;-1.48;95.39
58239;BME280;44037;55.638;37.356;2023-01-28T12:44:58;99739.69;;;-1.42;96.03
58239;BME280;44037;55.638;37.356;2023-01-28T12:47:35;99740.56;;;-1.42;95.83
58239;BME280;44037;55.638;37.356;2023-01-28T12:50:19;99734.69;;;-1.41;95.72
58239;BME280;44037;55.638;37.356;2023-01-28T12:52:54;99736.16;;;-1.44;95.21
58239;BME280;44037;55.638;37.356;2023-01-28T12:55:46;99735.91;;;-1.49;95.08
58239;BME280;44037;55.638;37.356;2023-01-28T12:58:29;99741.59;;;-1.53;94.89
58239;BME280;44037;55.638;37.356;2023-01-28T13:01:24;99735.34;;;-1.58;95.58
58239;BME280;44037;55.638;37.356;2023-01-28T13:03:57;99732.47;;;-1.64;95.11
58239;BME280;44037;55.638;37.356;2023-01-28T13:06:32;99742.25;;;-1.71;95.16
58239;BME280;44037;55.638;37.356;2023-01-28T13:09:11;99740.03;;;-1.79;95.19
58239;BME280;44037;55.638;37.356;2023-01-28T13:11:44;99743.34;;;-1.80;94.56
58239;BME280;44037;55.638;37.356;2023-01-28T13:14:22;99740.53;;;-1.85;94.83